Main page
METAR-TAF:

METAR-TAF

Airports :

Maharana Pratap Airport

Udaipur, India

latitude: 24-37-04N, longitude: 73-53-46E, elevation: 513 m

Current weather observation

The report was made 10 hours and 34 minutes ago, at 09:00 UTC
Wind 6 kt from the South
Temperature 27°C
Humidity 94%
Pressure 1002 hPa
Visibility: 1500 m
Scattered clouds at a height of 1500 ft
Few clouds at a height of 3000 ft, Cumulonimbus.
Broken clouds at a height of 2000 ft
Overcast at a height of 8000 ft
thunderstorm, rain

METAR: VAUD 210900Z 17006KT 1500 TSRA SCT015 FEW030CB BKN020 OVC080 27/26 Q1002 NOSIG

Time: 01:04 (19:34 UTC)


TAF: missing

Weather observations and forecasts of more than 4000 airports (METAR and TAF reports).

The available stations are represented by yellow and red dots on the map.

Hover mouse over dot to see the name of the station.

Then click to see weather observations and forecasts.

To change the map : click on the green buttons with a black cross to zoom in, on the green button with a dash to zoom out, or on the green arrows for adjacent maps.


METAR-TAF: